sensor_id;sensor_type;location;lat;lon;timestamp;P1;durP1;ratioP1;P2;durP2;ratioP2
12181;SDS011;6154;51.550;12.138;2022-10-31T00:01:28;9.63;;;4.45;;
12181;SDS011;6154;51.550;12.138;2022-10-31T00:03:59;6.75;;;4.28;;
12181;SDS011;6154;51.550;12.138;2022-10-31T00:06:27;8.23;;;5.45;;
12181;SDS011;6154;51.550;12.138;2022-10-31T00:08:57;10.23;;;4.68;;
12181;SDS011;6154;51.550;12.138;2022-10-31T00:11:28;9.93;;;5.50;;
12181;SDS011;6154;51.550;12.138;2022-10-31T00:13:57;7.00;;;5.55;;
12181;SDS011;6154;51.550;12.138;2022-10-31T00:16:26;7.70;;;4.95;;
12181;SDS011;6154;51.550;12.138;2022-10-31T00:18:56;12.13;;;6.57;;
12181;SDS011;6154;51.550;12.138;2022-10-31T00:21:26;10.30;;;5.03;;
12181;SDS011;6154;51.550;12.138;2022-10-31T00:23:56;9.55;;;4.68;;
12181;SDS011;6154;51.550;12.138;2022-10-31T00:26:26;9.70;;;5.40;;
12181;SDS011;6154;51.550;12.138;2022-10-31T00:28:56;7.90;;;5.35;;
12181;SDS011;6154;51.550;12.138;2022-10-31T00:31:26;8.55;;;5.03;;
12181;SDS011;6154;51.550;12.138;2022-10-31T00:33:55;10.43;;;5.93;;
12181;SDS011;6154;51.550;12.138;2022-10-31T00:36:24;11.40;;;5.35;;
12181;SDS011;6154;51.550;12.138;2022-10-31T00:38:53;8.57;;;5.10;;
12181;SDS011;6154;51.550;12.138;2022-10-31T00:41:21;7.53;;;5.53;;
12181;SDS011;6154;51.550;12.138;2022-10-31T00:43:49;7.12;;;4.65;;
12181;SDS011;6154;51.550;12.138;2022-10-31T00:46:19;6.57;;;4.78;;
12181;SDS011;6154;51.550;12.138;2022-10-31T00:48:49;8.13;;;5.30;;
12181;SDS011;6154;51.550;12.138;2022-10-31T00:51:17;8.30;;;5.30;;
12181;SDS011;6154;51.550;12.138;2022-10-31T00:53:45;12.95;;;5.93;;
12181;SDS011;6154;51.550;12.138;2022-10-31T00:56:14;10.00;;;5.30;;
12181;SDS011;6154;51.550;12.138;2022-10-31T00:58:42;11.50;;;5.12;;
12181;SDS011;6154;51.550;12.138;2022-10-31T01:01:11;10.43;;;5.07;;
12181;SDS011;6154;51.550;12.138;2022-10-31T01:03:41;8.00;;;5.47;;
12181;SDS011;6154;51.550;12.138;2022-10-31T01:06:10;8.50;;;5.25;;
12181;SDS011;6154;51.550;12.138;2022-10-31T01:08:40;7.32;;;4.37;;
12181;SDS011;6154;51.550;12.138;2022-10-31T01:11:12;11.12;;;5.32;;
12181;SDS011;6154;51.550;12.138;2022-10-31T01:13:42;7.10;;;4.75;;
12181;SDS011;6154;51.550;12.138;2022-10-31T01:16:12;7.85;;;5.37;;
12181;SDS011;6154;51.550;12.138;2022-10-31T01:18:43;10.15;;;5.10;;
12181;SDS011;6154;51.550;12.138;2022-10-31T01:21:12;8.88;;;5.22;;
12181;SDS011;6154;51.550;12.138;2022-10-31T01:23:43;7.72;;;4.97;;
12181;SDS011;6154;51.550;12.138;2022-10-31T01:26:13;7.87;;;5.22;;
12181;SDS011;6154;51.550;12.138;2022-10-31T01:28:46;10.02;;;5.28;;
12181;SDS011;6154;51.550;12.138;2022-10-31T01:31:16;6.05;;;4.70;;
12181;SDS011;6154;51.550;12.138;2022-10-31T01:33:47;9.82;;;5.10;;
12181;SDS011;6154;51.550;12.138;2022-10-31T01:36:17;8.02;;;5.28;;
12181;SDS011;6154;51.550;12.138;2022-10-31T01:38:49;7.12;;;4.20;;
12181;SDS011;6154;51.550;12.138;2022-10-31T01:41:20;9.50;;;5.28;;
12181;SDS011;6154;51.550;12.138;2022-10-31T01:43:51;7.30;;;4.95;;
12181;SDS011;6154;51.550;12.138;2022-10-31T01:46:21;9.48;;;4.85;;
12181;SDS011;6154;51.550;12.138;2022-10-31T01:48:54;7.03;;;5.03;;
12181;SDS011;6154;51.550;12.138;2022-10-31T01:51:26;8.35;;;5.18;;
12181;SDS011;6154;51.550;12.138;2022-10-31T01:53:59;9.68;;;4.82;;
12181;SDS011;6154;51.550;12.138;2022-10-31T01:56:31;9.48;;;4.97;;
12181;SDS011;6154;51.550;12.138;2022-10-31T01:59:06;9.32;;;5.50;;
12181;SDS011;6154;51.550;12.138;2022-10-31T02:01:39;8.20;;;5.57;;
12181;SDS011;6154;51.550;12.138;2022-10-31T02:04:10;6.95;;;5.43;;
12181;SDS011;6154;51.550;12.138;2022-10-31T02:06:40;7.40;;;5.60;;
12181;SDS011;6154;51.550;12.138;2022-10-31T02:09:13;8.63;;;5.32;;
12181;SDS011;6154;51.550;12.138;2022-10-31T02:11:42;7.87;;;5.22;;
12181;SDS011;6154;51.550;12.138;2022-10-31T02:14:13;7.78;;;4.80;;
12181;SDS011;6154;51.550;12.138;2022-10-31T02:16:41;9.73;;;5.45;;
12181;SDS011;6154;51.550;12.138;2022-10-31T02:19:11;8.15;;;5.22;;
12181;SDS011;6154;51.550;12.138;2022-10-31T02:21:49;10.02;;;5.60;;
12181;SDS011;6154;51.550;12.138;2022-10-31T02:27:16;10.00;;;4.72;;
12181;SDS011;6154;51.550;12.138;2022-10-31T02:30:06;6.72;;;4.97;;
12181;SDS011;6154;51.550;12.138;2022-10-31T02:32:50;6.95;;;4.82;;
12181;SDS011;6154;51.550;12.138;2022-10-31T02:35:35;7.55;;;4.60;;
12181;SDS011;6154;51.550;12.138;2022-10-31T02:38:22;8.07;;;4.28;;
12181;SDS011;6154;51.550;12.138;2022-10-31T02:41:00;10.85;;;4.60;;
12181;SDS011;6154;51.550;12.138;2022-10-31T02:43:35;7.35;;;4.75;;
12181;SDS011;6154;51.550;12.138;2022-10-31T02:46:07;7.95;;;4.12;;
12181;SDS011;6154;51.550;12.138;2022-10-31T02:48:44;7.95;;;5.00;;
12181;SDS011;6154;51.550;12.138;2022-10-31T02:51:14;8.50;;;5.10;;
12181;SDS011;6154;51.550;12.138;2022-10-31T02:53:44;7.12;;;4.70;;
12181;SDS011;6154;51.550;12.138;2022-10-31T02:56:13;6.60;;;4.47;;
12181;SDS011;6154;51.550;12.138;2022-10-31T02:58:44;7.75;;;4.45;;
12181;SDS011;6154;51.550;12.138;2022-10-31T03:01:26;9.88;;;4.90;;
12181;SDS011;6154;51.550;12.138;2022-10-31T03:04:13;8.75;;;4.45;;
12181;SDS011;6154;51.550;12.138;2022-10-31T03:06:53;10.32;;;5.05;;
12181;SDS011;6154;51.550;12.138;2022-10-31T03:09:27;6.35;;;4.22;;
12181;SDS011;6154;51.550;12.138;2022-10-31T03:12:04;6.97;;;4.35;;
12181;SDS011;6154;51.550;12.138;2022-10-31T03:14:39;9.15;;;4.82;;
12181;SDS011;6154;51.550;12.138;2022-10-31T03:17:13;7.95;;;5.53;;
12181;SDS011;6154;51.550;12.138;2022-10-31T03:19:50;7.22;;;4.60;;
12181;SDS011;6154;51.550;12.138;2022-10-31T03:22:25;6.15;;;4.40;;
12181;SDS011;6154;51.550;12.138;2022-10-31T03:24:58;6.82;;;4.28;;
12181;SDS011;6154;51.550;12.138;2022-10-31T03:27:30;3.97;;;3.40;;
12181;SDS011;6154;51.550;12.138;2022-10-31T03:30:02;9.10;;;4.35;;
12181;SDS011;6154;51.550;12.138;2022-10-31T03:32:36;6.35;;;3.97;;
12181;SDS011;6154;51.550;12.138;2022-10-31T03:35:10;6.37;;;4.35;;
12181;SDS011;6154;51.550;12.138;2022-10-31T03:37:43;6.00;;;4.22;;
12181;SDS011;6154;51.550;12.138;2022-10-31T03:40:13;7.93;;;4.43;;
12181;SDS011;6154;51.550;12.138;2022-10-31T03:42:46;8.48;;;4.75;;
12181;SDS011;6154;51.550;12.138;2022-10-31T03:45:21;7.18;;;4.15;;
12181;SDS011;6154;51.550;12.138;2022-10-31T03:47:53;4.87;;;3.92;;
12181;SDS011;6154;51.550;12.138;2022-10-31T03:50:25;8.73;;;3.65;;
12181;SDS011;6154;51.550;12.138;2022-10-31T03:53:01;7.60;;;4.07;;
12181;SDS011;6154;51.550;12.138;2022-10-31T03:55:37;9.70;;;4.43;;
12181;SDS011;6154;51.550;12.138;2022-10-31T03:58:11;8.40;;;4.55;;
12181;SDS011;6154;51.550;12.138;2022-10-31T04:00:45;10.93;;;4.47;;
12181;SDS011;6154;51.550;12.138;2022-10-31T04:03:18;12.75;;;4.43;;
12181;SDS011;6154;51.550;12.138;2022-10-31T04:05:53;7.72;;;4.30;;
12181;SDS011;6154;51.550;12.138;2022-10-31T04:08:26;6.82;;;3.92;;
12181;SDS011;6154;51.550;12.138;2022-10-31T04:10:58;8.68;;;4.35;;
12181;SDS011;6154;51.550;12.138;2022-10-31T04:13:30;7.95;;;4.55;;
12181;SDS011;6154;51.550;12.138;2022-10-31T04:16:02;6.90;;;4.35;;
12181;SDS011;6154;51.550;12.138;2022-10-31T04:18:32;4.80;;;4.00;;
12181;SDS011;6154;51.550;12.138;2022-10-31T04:21:03;9.45;;;4.55;;
12181;SDS011;6154;51.550;12.138;2022-10-31T04:23:34;7.07;;;4.43;;
12181;SDS011;6154;51.550;12.138;2022-10-31T04:26:04;8.85;;;4.45;;
12181;SDS011;6154;51.550;12.138;2022-10-31T04:28:32;6.90;;;4.35;;
12181;SDS011;6154;51.550;12.138;2022-10-31T04:31:01;6.03;;;4.03;;
12181;SDS011;6154;51.550;12.138;2022-10-31T04:33:29;10.07;;;4.65;;
12181;SDS011;6154;51.550;12.138;2022-10-31T04:35:58;8.80;;;4.15;;
12181;SDS011;6154;51.550;12.138;2022-10-31T04:38:28;6.65;;;4.28;;
12181;SDS011;6154;51.550;12.138;2022-10-31T04:40:56;9.18;;;4.57;;
12181;SDS011;6154;51.550;12.138;2022-10-31T04:43:28;10.18;;;4.72;;
12181;SDS011;6154;51.550;12.138;2022-10-31T04:45:58;9.98;;;4.37;;
12181;SDS011;6154;51.550;12.138;2022-10-31T04:48:27;6.72;;;4.45;;
12181;SDS011;6154;51.550;12.138;2022-10-31T04:50:59;6.68;;;4.57;;
12181;SDS011;6154;51.550;12.138;2022-10-31T04:53:29;7.82;;;4.65;;
12181;SDS011;6154;51.550;12.138;2022-10-31T04:55:59;8.63;;;5.15;;
12181;SDS011;6154;51.550;12.138;2022-10-31T04:58:31;8.43;;;4.78;;
12181;SDS011;6154;51.550;12.138;2022-10-31T05:00:59;7.28;;;4.25;;
12181;SDS011;6154;51.550;12.138;2022-10-31T05:03:28;6.05;;;4.55;;
12181;SDS011;6154;51.550;12.138;2022-10-31T05:05:56;9.60;;;4.80;;
12181;SDS011;6154;51.550;12.138;2022-10-31T05:08:25;5.85;;;4.12;;
12181;SDS011;6154;51.550;12.138;2022-10-31T05:10:54;8.32;;;5.20;;
12181;SDS011;6154;51.550;12.138;2022-10-31T05:13:30;8.77;;;5.05;;
12181;SDS011;6154;51.550;12.138;2022-10-31T05:16:01;7.68;;;4.28;;
12181;SDS011;6154;51.550;12.138;2022-10-31T05:18:32;8.32;;;4.68;;
12181;SDS011;6154;51.550;12.138;2022-10-31T05:21:03;8.13;;;4.85;;
12181;SDS011;6154;51.550;12.138;2022-10-31T05:23:33;9.27;;;5.00;;
12181;SDS011;6154;51.550;12.138;2022-10-31T05:26:03;6.75;;;4.55;;
12181;SDS011;6154;51.550;12.138;2022-10-31T05:28:32;10.23;;;4.40;;
12181;SDS011;6154;51.550;12.138;2022-10-31T05:31:00;9.40;;;4.60;;
12181;SDS011;6154;51.550;12.138;2022-10-31T05:33:29;8.10;;;4.22;;
12181;SDS011;6154;51.550;12.138;2022-10-31T05:36:18;7.07;;;4.65;;
12181;SDS011;6154;51.550;12.138;2022-10-31T05:38:47;8.68;;;4.35;;
12181;SDS011;6154;51.550;12.138;2022-10-31T05:41:17;8.23;;;4.55;;
12181;SDS011;6154;51.550;12.138;2022-10-31T05:43:46;10.27;;;4.80;;
12181;SDS011;6154;51.550;12.138;2022-10-31T05:46:14;10.63;;;4.62;;
12181;SDS011;6154;51.550;12.138;2022-10-31T05:48:45;6.70;;;4.82;;
12181;SDS011;6154;51.550;12.138;2022-10-31T05:51:16;12.32;;;5.15;;
12181;SDS011;6154;51.550;12.138;2022-10-31T05:53:46;9.52;;;4.72;;
12181;SDS011;6154;51.550;12.138;2022-10-31T05:56:15;8.82;;;4.30;;
12181;SDS011;6154;51.550;12.138;2022-10-31T05:58:45;10.05;;;4.55;;
12181;SDS011;6154;51.550;12.138;2022-10-31T06:01:13;9.60;;;5.55;;
12181;SDS011;6154;51.550;12.138;2022-10-31T06:03:43;8.02;;;5.00;;
12181;SDS011;6154;51.550;12.138;2022-10-31T06:06:14;6.90;;;4.03;;
12181;SDS011;6154;51.550;12.138;2022-10-31T06:08:42;8.93;;;4.57;;
12181;SDS011;6154;51.550;12.138;2022-10-31T06:11:11;9.65;;;5.32;;
12181;SDS011;6154;51.550;12.138;2022-10-31T06:13:45;9.20;;;4.57;;
12181;SDS011;6154;51.550;12.138;2022-10-31T06:16:13;11.30;;;4.72;;
12181;SDS011;6154;51.550;12.138;2022-10-31T06:18:42;8.63;;;5.35;;
12181;SDS011;6154;51.550;12.138;2022-10-31T06:21:11;8.35;;;4.95;;
12181;SDS011;6154;51.550;12.138;2022-10-31T06:23:44;11.88;;;5.05;;
12181;SDS011;6154;51.550;12.138;2022-10-31T06:26:13;7.40;;;4.87;;
12181;SDS011;6154;51.550;12.138;2022-10-31T06:28:42;10.93;;;5.20;;
12181;SDS011;6154;51.550;12.138;2022-10-31T06:31:12;9.63;;;5.05;;
12181;SDS011;6154;51.550;12.138;2022-10-31T06:33:41;8.65;;;4.62;;
12181;SDS011;6154;51.550;12.138;2022-10-31T06:36:10;9.70;;;4.93;;
12181;SDS011;6154;51.550;12.138;2022-10-31T06:38:38;9.18;;;4.28;;
12181;SDS011;6154;51.550;12.138;2022-10-31T06:41:08;8.90;;;4.07;;
12181;SDS011;6154;51.550;12.138;2022-10-31T06:43:36;8.23;;;4.85;;
12181;SDS011;6154;51.550;12.138;2022-10-31T06:46:06;6.00;;;4.55;;
12181;SDS011;6154;51.550;12.138;2022-10-31T06:48:36;6.57;;;3.90;;
12181;SDS011;6154;51.550;12.138;2022-10-31T06:51:05;9.75;;;4.68;;
12181;SDS011;6154;51.550;12.138;2022-10-31T06:53:33;6.53;;;3.97;;
12181;SDS011;6154;51.550;12.138;2022-10-31T06:56:02;7.90;;;4.18;;
12181;SDS011;6154;51.550;12.138;2022-10-31T06:58:33;6.78;;;4.18;;
12181;SDS011;6154;51.550;12.138;2022-10-31T07:01:02;7.20;;;4.22;;
12181;SDS011;6154;51.550;12.138;2022-10-31T07:03:31;10.35;;;4.12;;
12181;SDS011;6154;51.550;12.138;2022-10-31T07:06:01;6.75;;;4.03;;
12181;SDS011;6154;51.550;12.138;2022-10-31T07:08:31;6.47;;;4.37;;
12181;SDS011;6154;51.550;12.138;2022-10-31T07:11:00;6.85;;;3.70;;
12181;SDS011;6154;51.550;12.138;2022-10-31T07:13:28;9.18;;;4.57;;
12181;SDS011;6154;51.550;12.138;2022-10-31T07:15:59;7.35;;;3.75;;
12181;SDS011;6154;51.550;12.138;2022-10-31T07:18:30;7.37;;;3.92;;
12181;SDS011;6154;51.550;12.138;2022-10-31T07:20:59;7.32;;;3.90;;
12181;SDS011;6154;51.550;12.138;2022-10-31T07:23:29;7.50;;;3.95;;
12181;SDS011;6154;51.550;12.138;2022-10-31T07:25:58;6.70;;;3.92;;
12181;SDS011;6154;51.550;12.138;2022-10-31T07:28:29;5.37;;;4.00;;
12181;SDS011;6154;51.550;12.138;2022-10-31T07:30:58;7.55;;;4.28;;
12181;SDS011;6154;51.550;12.138;2022-10-31T07:33:26;6.90;;;4.60;;
12181;SDS011;6154;51.550;12.138;2022-10-31T07:35:56;6.87;;;3.87;;
12181;SDS011;6154;51.550;12.138;2022-10-31T07:38:28;6.15;;;4.10;;
12181;SDS011;6154;51.550;12.138;2022-10-31T07:40:58;6.90;;;3.95;;
12181;SDS011;6154;51.550;12.138;2022-10-31T07:43:27;7.07;;;4.62;;
12181;SDS011;6154;51.550;12.138;2022-10-31T07:45:56;5.20;;;4.00;;
12181;SDS011;6154;51.550;12.138;2022-10-31T07:48:26;6.03;;;4.20;;
12181;SDS011;6154;51.550;12.138;2022-10-31T07:51:05;8.40;;;4.32;;
12181;SDS011;6154;51.550;12.138;2022-10-31T07:53:39;4.95;;;3.90;;
12181;SDS011;6154;51.550;12.138;2022-10-31T07:56:08;6.97;;;4.28;;
12181;SDS011;6154;51.550;12.138;2022-10-31T07:58:37;9.50;;;4.82;;
12181;SDS011;6154;51.550;12.138;2022-10-31T08:01:05;7.57;;;4.28;;
12181;SDS011;6154;51.550;12.138;2022-10-31T08:03:36;7.03;;;4.35;;
12181;SDS011;6154;51.550;12.138;2022-10-31T08:06:06;10.40;;;5.12;;
12181;SDS011;6154;51.550;12.138;2022-10-31T08:08:37;8.27;;;4.78;;
12181;SDS011;6154;51.550;12.138;2022-10-31T08:11:07;7.22;;;4.50;;
12181;SDS011;6154;51.550;12.138;2022-10-31T08:13:36;6.15;;;4.05;;
12181;SDS011;6154;51.550;12.138;2022-10-31T08:16:05;10.43;;;4.60;;
12181;SDS011;6154;51.550;12.138;2022-10-31T08:18:34;9.85;;;4.82;;
12181;SDS011;6154;51.550;12.138;2022-10-31T08:21:07;7.95;;;4.45;;
12181;SDS011;6154;51.550;12.138;2022-10-31T08:23:37;6.05;;;4.45;;
12181;SDS011;6154;51.550;12.138;2022-10-31T08:26:08;10.40;;;4.80;;
12181;SDS011;6154;51.550;12.138;2022-10-31T08:28:36;9.13;;;4.40;;
12181;SDS011;6154;51.550;12.138;2022-10-31T08:31:05;5.45;;;3.85;;
12181;SDS011;6154;51.550;12.138;2022-10-31T08:33:39;8.98;;;4.43;;
12181;SDS011;6154;51.550;12.138;2022-10-31T08:36:12;14.45;;;4.55;;
12181;SDS011;6154;51.550;12.138;2022-10-31T08:38:41;7.07;;;4.93;;
12181;SDS011;6154;51.550;12.138;2022-10-31T08:41:11;9.77;;;4.53;;
12181;SDS011;6154;51.550;12.138;2022-10-31T08:43:39;8.20;;;5.05;;
12181;SDS011;6154;51.550;12.138;2022-10-31T08:46:08;11.38;;;5.70;;
12181;SDS011;6154;51.550;12.138;2022-10-31T08:48:37;8.90;;;5.50;;
12181;SDS011;6154;51.550;12.138;2022-10-31T08:51:11;11.30;;;5.35;;
12181;SDS011;6154;51.550;12.138;2022-10-31T08:53:41;10.85;;;5.47;;
12181;SDS011;6154;51.550;12.138;2022-10-31T08:56:13;11.23;;;5.70;;
12181;SDS011;6154;51.550;12.138;2022-10-31T08:58:42;10.13;;;5.80;;
12181;SDS011;6154;51.550;12.138;2022-10-31T09:01:10;8.90;;;4.75;;
12181;SDS011;6154;51.550;12.138;2022-10-31T09:03:41;12.23;;;5.50;;
12181;SDS011;6154;51.550;12.138;2022-10-31T09:06:09;12.88;;;6.05;;
12181;SDS011;6154;51.550;12.138;2022-10-31T09:08:38;9.10;;;4.82;;
12181;SDS011;6154;51.550;12.138;2022-10-31T09:11:06;9.77;;;5.47;;
12181;SDS011;6154;51.550;12.138;2022-10-31T09:13:40;10.40;;;5.68;;
12181;SDS011;6154;51.550;12.138;2022-10-31T09:16:11;8.82;;;5.35;;
12181;SDS011;6154;51.550;12.138;2022-10-31T09:18:40;11.80;;;5.93;;
12181;SDS011;6154;51.550;12.138;2022-10-31T09:21:08;11.48;;;5.70;;
12181;SDS011;6154;51.550;12.138;2022-10-31T09:23:36;12.85;;;6.50;;
12181;SDS011;6154;51.550;12.138;2022-10-31T09:26:05;12.20;;;6.43;;
12181;SDS011;6154;51.550;12.138;2022-10-31T09:28:33;15.00;;;7.82;;
12181;SDS011;6154;51.550;12.138;2022-10-31T09:31:04;18.12;;;7.80;;
12181;SDS011;6154;51.550;12.138;2022-10-31T09:33:34;16.45;;;7.00;;
12181;SDS011;6154;51.550;12.138;2022-10-31T09:36:05;19.80;;;8.25;;
12181;SDS011;6154;51.550;12.138;2022-10-31T09:38:35;15.50;;;7.45;;
12181;SDS011;6154;51.550;12.138;2022-10-31T09:41:06;15.07;;;7.87;;
12181;SDS011;6154;51.550;12.138;2022-10-31T09:43:46;18.20;;;8.43;;
12181;SDS011;6154;51.550;12.138;2022-10-31T09:46:27;20.00;;;10.18;;
12181;SDS011;6154;51.550;12.138;2022-10-31T09:49:14;20.60;;;10.52;;
12181;SDS011;6154;51.550;12.138;2022-10-31T09:51:55;24.25;;;10.80;;
12181;SDS011;6154;51.550;12.138;2022-10-31T09:54:30;27.50;;;12.10;;
12181;SDS011;6154;51.550;12.138;2022-10-31T09:57:02;24.73;;;12.18;;
12181;SDS011;6154;51.550;12.138;2022-10-31T09:59:33;21.10;;;11.73;;
12181;SDS011;6154;51.550;12.138;2022-10-31T10:02:10;22.87;;;11.63;;
12181;SDS011;6154;51.550;12.138;2022-10-31T10:04:46;24.10;;;12.80;;
12181;SDS011;6154;51.550;12.138;2022-10-31T10:07:22;24.63;;;11.93;;
12181;SDS011;6154;51.550;12.138;2022-10-31T10:09:59;25.73;;;12.32;;
12181;SDS011;6154;51.550;12.138;2022-10-31T10:12:36;27.15;;;11.70;;
12181;SDS011;6154;51.550;12.138;2022-10-31T10:18:08;26.25;;;12.13;;
12181;SDS011;6154;51.550;12.138;2022-10-31T10:20:49;24.92;;;11.95;;
12181;SDS011;6154;51.550;12.138;2022-10-31T10:23:35;26.25;;;12.25;;
12181;SDS011;6154;51.550;12.138;2022-10-31T10:26:13;23.05;;;11.65;;
12181;SDS011;6154;51.550;12.138;2022-10-31T10:28:46;21.92;;;11.77;;
12181;SDS011;6154;51.550;12.138;2022-10-31T10:31:18;25.40;;;12.05;;
12181;SDS011;6154;51.550;12.138;2022-10-31T10:33:56;25.02;;;11.73;;
12181;SDS011;6154;51.550;12.138;2022-10-31T10:36:30;19.67;;;10.63;;
12181;SDS011;6154;51.550;12.138;2022-10-31T10:39:08;20.80;;;11.43;;
12181;SDS011;6154;51.550;12.138;2022-10-31T10:41:43;25.58;;;12.13;;
12181;SDS011;6154;51.550;12.138;2022-10-31T10:44:28;27.45;;;12.32;;
12181;SDS011;6154;51.550;12.138;2022-10-31T10:47:14;24.10;;;11.50;;
12181;SDS011;6154;51.550;12.138;2022-10-31T10:50:01;26.45;;;11.45;;
12181;SDS011;6154;51.550;12.138;2022-10-31T10:52:36;24.60;;;11.18;;
12181;SDS011;6154;51.550;12.138;2022-10-31T10:55:18;24.95;;;11.12;;
12181;SDS011;6154;51.550;12.138;2022-10-31T10:57:55;26.35;;;11.48;;
12181;SDS011;6154;51.550;12.138;2022-10-31T11:00:29;24.35;;;12.30;;
12181;SDS011;6154;51.550;12.138;2022-10-31T11:02:59;28.77;;;12.73;;
12181;SDS011;6154;51.550;12.138;2022-10-31T11:05:33;25.98;;;12.15;;
12181;SDS011;6154;51.550;12.138;2022-10-31T11:08:04;25.08;;;12.18;;
12181;SDS011;6154;51.550;12.138;2022-10-31T11:10:33;31.80;;;13.27;;
12181;SDS011;6154;51.550;12.138;2022-10-31T11:13:04;25.12;;;12.85;;
12181;SDS011;6154;51.550;12.138;2022-10-31T11:15:53;24.77;;;13.05;;
12181;SDS011;6154;51.550;12.138;2022-10-31T11:18:25;26.27;;;12.48;;
12181;SDS011;6154;51.550;12.138;2022-10-31T11:20:58;27.13;;;13.02;;
12181;SDS011;6154;51.550;12.138;2022-10-31T11:23:28;28.42;;;13.60;;
12181;SDS011;6154;51.550;12.138;2022-10-31T11:25:59;30.75;;;13.40;;
12181;SDS011;6154;51.550;12.138;2022-10-31T11:28:29;32.88;;;14.68;;
12181;SDS011;6154;51.550;12.138;2022-10-31T11:31:05;29.05;;;14.55;;
12181;SDS011;6154;51.550;12.138;2022-10-31T11:33:37;29.73;;;14.27;;
12181;SDS011;6154;51.550;12.138;2022-10-31T11:36:15;31.65;;;14.63;;
12181;SDS011;6154;51.550;12.138;2022-10-31T11:38:49;34.67;;;15.38;;
12181;SDS011;6154;51.550;12.138;2022-10-31T11:41:23;31.35;;;14.95;;
12181;SDS011;6154;51.550;12.138;2022-10-31T11:43:54;29.63;;;15.05;;
12181;SDS011;6154;51.550;12.138;2022-10-31T11:46:27;28.77;;;14.25;;
12181;SDS011;6154;51.550;12.138;2022-10-31T11:49:01;32.63;;;15.07;;
12181;SDS011;6154;51.550;12.138;2022-10-31T11:51:34;35.28;;;17.20;;
12181;SDS011;6154;51.550;12.138;2022-10-31T11:54:03;36.50;;;16.52;;
12181;SDS011;6154;51.550;12.138;2022-10-31T11:56:37;37.38;;;15.50;;
12181;SDS011;6154;51.550;12.138;2022-10-31T11:59:15;31.73;;;15.18;;
12181;SDS011;6154;51.550;12.138;2022-10-31T12:01:47;31.40;;;14.75;;
12181;SDS011;6154;51.550;12.138;2022-10-31T12:04:17;32.47;;;15.43;;
12181;SDS011;6154;51.550;12.138;2022-10-31T12:06:54;31.45;;;14.35;;
12181;SDS011;6154;51.550;12.138;2022-10-31T12:09:23;31.02;;;14.68;;
12181;SDS011;6154;51.550;12.138;2022-10-31T12:12:12;28.92;;;14.38;;
12181;SDS011;6154;51.550;12.138;2022-10-31T12:14:55;31.37;;;14.77;;
12181;SDS011;6154;51.550;12.138;2022-10-31T12:17:34;29.70;;;14.43;;
12181;SDS011;6154;51.550;12.138;2022-10-31T12:20:11;32.75;;;14.50;;
12181;SDS011;6154;51.550;12.138;2022-10-31T12:22:52;32.15;;;15.23;;
12181;SDS011;6154;51.550;12.138;2022-10-31T12:25:32;38.83;;;14.65;;
12181;SDS011;6154;51.550;12.138;2022-10-31T12:28:14;28.83;;;14.18;;
12181;SDS011;6154;51.550;12.138;2022-10-31T12:31:17;29.65;;;14.70;;
12181;SDS011;6154;51.550;12.138;2022-10-31T12:33:59;27.48;;;13.80;;
12181;SDS011;6154;51.550;12.138;2022-10-31T12:36:43;31.58;;;14.75;;
12181;SDS011;6154;51.550;12.138;2022-10-31T12:39:23;35.95;;;14.23;;
12181;SDS011;6154;51.550;12.138;2022-10-31T12:41:58;28.33;;;14.05;;
12181;SDS011;6154;51.550;12.138;2022-10-31T12:44:55;34.17;;;14.87;;
12181;SDS011;6154;51.550;12.138;2022-10-31T12:50:29;29.52;;;14.38;;
12181;SDS011;6154;51.550;12.138;2022-10-31T12:53:12;37.20;;;17.37;;
12181;SDS011;6154;51.550;12.138;2022-10-31T12:55:59;35.70;;;17.80;;
12181;SDS011;6154;51.550;12.138;2022-10-31T12:58:40;32.50;;;15.55;;
12181;SDS011;6154;51.550;12.138;2022-10-31T13:01:16;33.45;;;15.93;;
12181;SDS011;6154;51.550;12.138;2022-10-31T13:03:51;34.05;;;14.48;;
12181;SDS011;6154;51.550;12.138;2022-10-31T13:06:27;35.33;;;15.90;;
12181;SDS011;6154;51.550;12.138;2022-10-31T13:09:05;31.62;;;13.73;;
12181;SDS011;6154;51.550;12.138;2022-10-31T13:11:37;34.67;;;14.27;;
12181;SDS011;6154;51.550;12.138;2022-10-31T13:14:13;35.30;;;15.82;;
12181;SDS011;6154;51.550;12.138;2022-10-31T13:16:47;28.65;;;15.43;;
12181;SDS011;6154;51.550;12.138;2022-10-31T13:19:19;34.33;;;13.70;;
12181;SDS011;6154;51.550;12.138;2022-10-31T13:21:54;30.40;;;14.50;;
12181;SDS011;6154;51.550;12.138;2022-10-31T13:24:30;26.60;;;13.88;;
12181;SDS011;6154;51.550;12.138;2022-10-31T13:27:07;32.97;;;15.32;;
12181;SDS011;6154;51.550;12.138;2022-10-31T13:29:42;31.83;;;14.07;;
12181;SDS011;6154;51.550;12.138;2022-10-31T13:32:20;32.05;;;13.75;;
12181;SDS011;6154;51.550;12.138;2022-10-31T13:34:50;33.85;;;14.00;;
12181;SDS011;6154;51.550;12.138;2022-10-31T13:37:23;34.70;;;13.85;;
12181;SDS011;6154;51.550;12.138;2022-10-31T13:40:03;31.50;;;14.02;;
12181;SDS011;6154;51.550;12.138;2022-10-31T13:42:47;32.55;;;14.75;;
12181;SDS011;6154;51.550;12.138;2022-10-31T13:45:24;30.88;;;14.57;;
12181;SDS011;6154;51.550;12.138;2022-10-31T13:47:57;27.95;;;13.93;;
12181;SDS011;6154;51.550;12.138;2022-10-31T13:50:28;29.75;;;14.80;;
12181;SDS011;6154;51.550;12.138;2022-10-31T13:53:12;28.52;;;14.13;;
12181;SDS011;6154;51.550;12.138;2022-10-31T13:55:43;32.75;;;13.93;;
12181;SDS011;6154;51.550;12.138;2022-10-31T13:58:22;29.30;;;14.80;;
12181;SDS011;6154;51.550;12.138;2022-10-31T14:01:02;28.25;;;13.43;;
12181;SDS011;6154;51.550;12.138;2022-10-31T14:03:45;31.35;;;13.75;;
12181;SDS011;6154;51.550;12.138;2022-10-31T14:06:38;28.80;;;13.27;;
12181;SDS011;6154;51.550;12.138;2022-10-31T14:09:18;32.35;;;14.63;;
12181;SDS011;6154;51.550;12.138;2022-10-31T14:11:52;28.33;;;13.68;;
12181;SDS011;6154;51.550;12.138;2022-10-31T14:14:26;31.92;;;14.87;;
12181;SDS011;6154;51.550;12.138;2022-10-31T14:17:03;29.30;;;13.88;;
12181;SDS011;6154;51.550;12.138;2022-10-31T14:19:32;28.60;;;13.45;;
12181;SDS011;6154;51.550;12.138;2022-10-31T14:22:01;28.48;;;13.52;;
12181;SDS011;6154;51.550;12.138;2022-10-31T14:24:31;35.78;;;16.42;;
12181;SDS011;6154;51.550;12.138;2022-10-31T14:30:17;32.78;;;14.95;;
12181;SDS011;6154;51.550;12.138;2022-10-31T14:32:50;32.28;;;13.80;;
12181;SDS011;6154;51.550;12.138;2022-10-31T14:35:21;35.30;;;14.50;;
12181;SDS011;6154;51.550;12.138;2022-10-31T14:38:02;33.25;;;15.20;;
12181;SDS011;6154;51.550;12.138;2022-10-31T14:40:41;30.95;;;15.82;;
12181;SDS011;6154;51.550;12.138;2022-10-31T14:46:47;38.97;;;17.37;;
12181;SDS011;6154;51.550;12.138;2022-10-31T14:49:25;36.65;;;17.45;;
12181;SDS011;6154;51.550;12.138;2022-10-31T14:52:05;37.75;;;18.00;;
12181;SDS011;6154;51.550;12.138;2022-10-31T14:54:37;31.27;;;16.75;;
12181;SDS011;6154;51.550;12.138;2022-10-31T14:57:13;35.88;;;17.17;;
12181;SDS011;6154;51.550;12.138;2022-10-31T14:59:48;37.67;;;15.73;;
12181;SDS011;6154;51.550;12.138;2022-10-31T15:02:20;34.72;;;16.92;;
12181;SDS011;6154;51.550;12.138;2022-10-31T15:04:52;36.10;;;15.57;;
12181;SDS011;6154;51.550;12.138;2022-10-31T15:07:24;34.53;;;17.15;;
12181;SDS011;6154;51.550;12.138;2022-10-31T15:09:57;36.85;;;16.37;;
12181;SDS011;6154;51.550;12.138;2022-10-31T15:12:28;36.58;;;16.65;;
12181;SDS011;6154;51.550;12.138;2022-10-31T15:15:10;45.95;;;20.70;;
12181;SDS011;6154;51.550;12.138;2022-10-31T15:17:43;37.72;;;15.80;;
12181;SDS011;6154;51.550;12.138;2022-10-31T15:20:19;36.40;;;16.42;;
12181;SDS011;6154;51.550;12.138;2022-10-31T15:22:50;35.70;;;16.30;;
12181;SDS011;6154;51.550;12.138;2022-10-31T15:25:20;31.23;;;15.10;;